sensor_id;sensor_type;location;lat;lon;timestamp;P1;durP1;ratioP1;P2;durP2;ratioP2
45274;SDS011;31019;43.780;25.948;2023-03-23T00:00:52;96.60;;;86.90;;
45274;SDS011;31019;43.780;25.948;2023-03-23T00:03:21;99.13;;;89.35;;
45274;SDS011;31019;43.780;25.948;2023-03-23T00:05:50;118.53;;;107.82;;
45274;SDS011;31019;43.780;25.948;2023-03-23T00:08:17;110.45;;;100.07;;
45274;SDS011;31019;43.780;25.948;2023-03-23T00:10:49;102.10;;;92.13;;
45274;SDS011;31019;43.780;25.948;2023-03-23T00:13:17;113.82;;;102.95;;
45274;SDS011;31019;43.780;25.948;2023-03-23T00:15:45;97.03;;;87.40;;
45274;SDS011;31019;43.780;25.948;2023-03-23T00:18:14;97.00;;;86.97;;
45274;SDS011;31019;43.780;25.948;2023-03-23T00:20:48;94.53;;;84.85;;
45274;SDS011;31019;43.780;25.948;2023-03-23T00:23:16;106.13;;;95.85;;
45274;SDS011;31019;43.780;25.948;2023-03-23T00:25:45;98.05;;;87.78;;
45274;SDS011;31019;43.780;25.948;2023-03-23T00:28:12;110.80;;;100.15;;
45274;SDS011;31019;43.780;25.948;2023-03-23T00:30:39;103.47;;;93.18;;
45274;SDS011;31019;43.780;25.948;2023-03-23T00:33:07;132.18;;;120.18;;
45274;SDS011;31019;43.780;25.948;2023-03-23T00:35:37;102.82;;;92.38;;
45274;SDS011;31019;43.780;25.948;2023-03-23T00:38:06;107.50;;;96.28;;
45274;SDS011;31019;43.780;25.948;2023-03-23T00:40:33;111.50;;;99.93;;
45274;SDS011;31019;43.780;25.948;2023-03-23T00:43:01;135.27;;;122.28;;
45274;SDS011;31019;43.780;25.948;2023-03-23T00:45:29;123.68;;;111.70;;
45274;SDS011;31019;43.780;25.948;2023-03-23T00:47:55;124.25;;;112.10;;
45274;SDS011;31019;43.780;25.948;2023-03-23T00:50:26;117.97;;;106.28;;
45274;SDS011;31019;43.780;25.948;2023-03-23T00:52:54;112.97;;;101.68;;
45274;SDS011;31019;43.780;25.948;2023-03-23T00:55:23;120.47;;;108.07;;
45274;SDS011;31019;43.780;25.948;2023-03-23T00:57:50;126.72;;;112.45;;
45274;SDS011;31019;43.780;25.948;2023-03-23T01:00:17;138.15;;;122.90;;
45274;SDS011;31019;43.780;25.948;2023-03-23T01:02:45;153.40;;;136.80;;
45274;SDS011;31019;43.780;25.948;2023-03-23T01:05:12;128.98;;;115.22;;
45274;SDS011;31019;43.780;25.948;2023-03-23T01:07:40;136.38;;;115.95;;
45274;SDS011;31019;43.780;25.948;2023-03-23T01:10:09;132.57;;;113.05;;
45274;SDS011;31019;43.780;25.948;2023-03-23T01:12:43;117.07;;;104.32;;
45274;SDS011;31019;43.780;25.948;2023-03-23T01:15:13;140.32;;;126.32;;
45274;SDS011;31019;43.780;25.948;2023-03-23T01:17:41;133.15;;;118.47;;
45274;SDS011;31019;43.780;25.948;2023-03-23T01:20:08;144.45;;;128.90;;
45274;SDS011;31019;43.780;25.948;2023-03-23T01:22:35;148.70;;;132.57;;
45274;SDS011;31019;43.780;25.948;2023-03-23T01:25:03;140.25;;;125.75;;
45274;SDS011;31019;43.780;25.948;2023-03-23T01:27:30;116.40;;;104.68;;
45274;SDS011;31019;43.780;25.948;2023-03-23T01:29:58;106.18;;;95.53;;
45274;SDS011;31019;43.780;25.948;2023-03-23T01:32:25;128.80;;;116.50;;
45274;SDS011;31019;43.780;25.948;2023-03-23T01:34:52;125.90;;;114.20;;
45274;SDS011;31019;43.780;25.948;2023-03-23T01:37:19;118.43;;;107.25;;
45274;SDS011;31019;43.780;25.948;2023-03-23T01:39:51;106.93;;;96.70;;
45274;SDS011;31019;43.780;25.948;2023-03-23T01:42:18;107.32;;;97.00;;
45274;SDS011;31019;43.780;25.948;2023-03-23T01:47:59;105.10;;;94.72;;
45274;SDS011;31019;43.780;25.948;2023-03-23T01:50:30;108.72;;;98.07;;
45274;SDS011;31019;43.780;25.948;2023-03-23T01:53:02;122.95;;;111.50;;
45274;SDS011;31019;43.780;25.948;2023-03-23T01:55:33;124.70;;;113.35;;
45274;SDS011;31019;43.780;25.948;2023-03-23T01:58:03;110.22;;;99.20;;
45274;SDS011;31019;43.780;25.948;2023-03-23T02:00:32;116.07;;;105.18;;
45274;SDS011;31019;43.780;25.948;2023-03-23T02:03:00;123.10;;;111.35;;
45274;SDS011;31019;43.780;25.948;2023-03-23T02:05:28;124.78;;;113.03;;
45274;SDS011;31019;43.780;25.948;2023-03-23T02:07:59;136.83;;;121.93;;
45274;SDS011;31019;43.780;25.948;2023-03-23T02:10:29;142.65;;;128.02;;
45274;SDS011;31019;43.780;25.948;2023-03-23T02:12:56;136.48;;;123.05;;
45274;SDS011;31019;43.780;25.948;2023-03-23T02:15:24;127.35;;;114.57;;
45274;SDS011;31019;43.780;25.948;2023-03-23T02:17:57;117.95;;;105.80;;
45274;SDS011;31019;43.780;25.948;2023-03-23T02:20:34;131.98;;;119.07;;
45274;SDS011;31019;43.780;25.948;2023-03-23T02:23:27;142.80;;;127.95;;
45274;SDS011;31019;43.780;25.948;2023-03-23T02:26:19;137.77;;;122.90;;
45274;SDS011;31019;43.780;25.948;2023-03-23T02:32:01;123.80;;;110.13;;
45274;SDS011;31019;43.780;25.948;2023-03-23T02:34:38;130.13;;;115.35;;
45274;SDS011;31019;43.780;25.948;2023-03-23T02:37:08;128.75;;;110.53;;
45274;SDS011;31019;43.780;25.948;2023-03-23T02:39:40;141.25;;;121.10;;
45274;SDS011;31019;43.780;25.948;2023-03-23T02:42:11;135.10;;;110.97;;
45274;SDS011;31019;43.780;25.948;2023-03-23T02:44:42;131.18;;;115.25;;
45274;SDS011;31019;43.780;25.948;2023-03-23T02:47:12;126.80;;;106.95;;
45274;SDS011;31019;43.780;25.948;2023-03-23T02:49:45;142.45;;;127.10;;
45274;SDS011;31019;43.780;25.948;2023-03-23T02:52:16;155.02;;;139.20;;
45274;SDS011;31019;43.780;25.948;2023-03-23T02:54:46;144.93;;;129.82;;
45274;SDS011;31019;43.780;25.948;2023-03-23T02:57:14;121.93;;;109.00;;
45274;SDS011;31019;43.780;25.948;2023-03-23T02:59:42;116.90;;;101.13;;
45274;SDS011;31019;43.780;25.948;2023-03-23T03:02:09;130.68;;;116.82;;
45274;SDS011;31019;43.780;25.948;2023-03-23T03:04:41;134.40;;;120.63;;
45274;SDS011;31019;43.780;25.948;2023-03-23T03:07:32;122.82;;;109.40;;
45274;SDS011;31019;43.780;25.948;2023-03-23T03:10:05;136.93;;;121.53;;
45274;SDS011;31019;43.780;25.948;2023-03-23T03:12:41;148.13;;;132.48;;
45274;SDS011;31019;43.780;25.948;2023-03-23T03:15:17;131.63;;;112.32;;
45274;SDS011;31019;43.780;25.948;2023-03-23T03:17:51;133.50;;;110.60;;
45274;SDS011;31019;43.780;25.948;2023-03-23T03:20:25;137.55;;;107.03;;
45274;SDS011;31019;43.780;25.948;2023-03-23T03:22:54;130.15;;;101.47;;
45274;SDS011;31019;43.780;25.948;2023-03-23T03:25:22;122.43;;;98.60;;
45274;SDS011;31019;43.780;25.948;2023-03-23T03:27:53;132.50;;;118.25;;
45274;SDS011;31019;43.780;25.948;2023-03-23T03:30:23;141.90;;;112.57;;
45274;SDS011;31019;43.780;25.948;2023-03-23T03:32:53;139.50;;;109.10;;
45274;SDS011;31019;43.780;25.948;2023-03-23T03:35:20;143.50;;;107.28;;
45274;SDS011;31019;43.780;25.948;2023-03-23T03:37:47;146.70;;;116.13;;
45274;SDS011;31019;43.780;25.948;2023-03-23T03:40:18;151.45;;;112.80;;
45274;SDS011;31019;43.780;25.948;2023-03-23T03:42:46;135.73;;;95.75;;
45274;SDS011;31019;43.780;25.948;2023-03-23T03:45:15;137.13;;;100.55;;
45274;SDS011;31019;43.780;25.948;2023-03-23T03:47:43;153.85;;;104.75;;
45274;SDS011;31019;43.780;25.948;2023-03-23T03:50:10;154.05;;;108.82;;
45274;SDS011;31019;43.780;25.948;2023-03-23T03:52:38;157.27;;;116.25;;
45274;SDS011;31019;43.780;25.948;2023-03-23T03:55:05;147.10;;;120.75;;
45274;SDS011;31019;43.780;25.948;2023-03-23T03:57:34;154.70;;;114.28;;
45274;SDS011;31019;43.780;25.948;2023-03-23T04:00:01;142.57;;;110.90;;
45274;SDS011;31019;43.780;25.948;2023-03-23T04:02:38;161.10;;;112.70;;
45274;SDS011;31019;43.780;25.948;2023-03-23T04:05:06;152.88;;;111.47;;
45274;SDS011;31019;43.780;25.948;2023-03-23T04:07:35;157.55;;;103.22;;
45274;SDS011;31019;43.780;25.948;2023-03-23T04:10:03;162.50;;;120.68;;
45274;SDS011;31019;43.780;25.948;2023-03-23T04:12:32;154.35;;;97.97;;
45274;SDS011;31019;43.780;25.948;2023-03-23T04:15:00;151.07;;;98.10;;
45274;SDS011;31019;43.780;25.948;2023-03-23T04:17:27;154.93;;;100.70;;
45274;SDS011;31019;43.780;25.948;2023-03-23T04:19:54;150.90;;;99.35;;
45274;SDS011;31019;43.780;25.948;2023-03-23T04:22:22;153.98;;;97.60;;
45274;SDS011;31019;43.780;25.948;2023-03-23T04:24:55;152.70;;;98.65;;
45274;SDS011;31019;43.780;25.948;2023-03-23T04:27:25;144.35;;;99.53;;
45274;SDS011;31019;43.780;25.948;2023-03-23T04:29:54;150.27;;;103.63;;
45274;SDS011;31019;43.780;25.948;2023-03-23T04:32:24;136.02;;;93.57;;
45274;SDS011;31019;43.780;25.948;2023-03-23T04:34:54;147.85;;;101.43;;
45274;SDS011;31019;43.780;25.948;2023-03-23T04:37:21;139.18;;;96.90;;
45274;SDS011;31019;43.780;25.948;2023-03-23T04:39:50;142.07;;;96.10;;
45274;SDS011;31019;43.780;25.948;2023-03-23T04:42:26;130.35;;;93.72;;
45274;SDS011;31019;43.780;25.948;2023-03-23T04:44:56;136.95;;;95.80;;
45274;SDS011;31019;43.780;25.948;2023-03-23T04:47:23;138.52;;;97.07;;
45274;SDS011;31019;43.780;25.948;2023-03-23T04:49:54;140.00;;;97.20;;
45274;SDS011;31019;43.780;25.948;2023-03-23T04:52:21;133.52;;;95.47;;
45274;SDS011;31019;43.780;25.948;2023-03-23T04:54:50;136.93;;;98.93;;
45274;SDS011;31019;43.780;25.948;2023-03-23T04:57:16;138.25;;;98.28;;
45274;SDS011;31019;43.780;25.948;2023-03-23T04:59:43;133.82;;;100.07;;
45274;SDS011;31019;43.780;25.948;2023-03-23T05:02:10;137.40;;;99.53;;
45274;SDS011;31019;43.780;25.948;2023-03-23T05:04:39;147.55;;;107.05;;
45274;SDS011;31019;43.780;25.948;2023-03-23T05:07:06;132.18;;;101.32;;
45274;SDS011;31019;43.780;25.948;2023-03-23T05:09:34;137.90;;;101.15;;
45274;SDS011;31019;43.780;25.948;2023-03-23T05:12:04;142.95;;;98.38;;
45274;SDS011;31019;43.780;25.948;2023-03-23T05:14:32;140.57;;;99.45;;
45274;SDS011;31019;43.780;25.948;2023-03-23T05:16:58;135.98;;;105.43;;
45274;SDS011;31019;43.780;25.948;2023-03-23T05:19:25;126.28;;;101.45;;
45274;SDS011;31019;43.780;25.948;2023-03-23T05:21:56;142.65;;;100.50;;
45274;SDS011;31019;43.780;25.948;2023-03-23T05:24:27;126.32;;;92.22;;
45274;SDS011;31019;43.780;25.948;2023-03-23T05:26:56;132.15;;;95.45;;
45274;SDS011;31019;43.780;25.948;2023-03-23T05:29:23;134.88;;;98.45;;
45274;SDS011;31019;43.780;25.948;2023-03-23T05:31:50;135.88;;;101.55;;
45274;SDS011;31019;43.780;25.948;2023-03-23T05:34:20;132.23;;;95.22;;
45274;SDS011;31019;43.780;25.948;2023-03-23T05:36:47;140.20;;;95.70;;
45274;SDS011;31019;43.780;25.948;2023-03-23T05:39:15;133.00;;;96.28;;
45274;SDS011;31019;43.780;25.948;2023-03-23T05:41:42;137.30;;;97.47;;
45274;SDS011;31019;43.780;25.948;2023-03-23T05:44:09;145.02;;;95.85;;
45274;SDS011;31019;43.780;25.948;2023-03-23T05:46:38;146.68;;;97.32;;
45274;SDS011;31019;43.780;25.948;2023-03-23T05:49:05;153.40;;;101.05;;
45274;SDS011;31019;43.780;25.948;2023-03-23T05:51:32;152.82;;;103.63;;
45274;SDS011;31019;43.780;25.948;2023-03-23T05:54:00;160.80;;;101.57;;
45274;SDS011;31019;43.780;25.948;2023-03-23T05:56:28;159.80;;;104.50;;
45274;SDS011;31019;43.780;25.948;2023-03-23T05:58:56;160.00;;;99.47;;
45274;SDS011;31019;43.780;25.948;2023-03-23T06:01:23;154.85;;;96.03;;
45274;SDS011;31019;43.780;25.948;2023-03-23T06:03:49;157.93;;;105.68;;
45274;SDS011;31019;43.780;25.948;2023-03-23T06:06:19;146.48;;;99.60;;
45274;SDS011;31019;43.780;25.948;2023-03-23T06:08:45;160.95;;;99.75;;
45274;SDS011;31019;43.780;25.948;2023-03-23T06:11:13;151.88;;;104.63;;
45274;SDS011;31019;43.780;25.948;2023-03-23T06:13:41;156.13;;;102.68;;
45274;SDS011;31019;43.780;25.948;2023-03-23T06:16:09;150.70;;;102.00;;
45274;SDS011;31019;43.780;25.948;2023-03-23T06:18:36;146.00;;;101.00;;
45274;SDS011;31019;43.780;25.948;2023-03-23T06:21:05;149.85;;;99.85;;
45274;SDS011;31019;43.780;25.948;2023-03-23T06:23:33;151.57;;;106.35;;
45274;SDS011;31019;43.780;25.948;2023-03-23T06:26:00;143.20;;;106.32;;
45274;SDS011;31019;43.780;25.948;2023-03-23T06:28:28;143.63;;;103.57;;
45274;SDS011;31019;43.780;25.948;2023-03-23T06:30:59;142.73;;;103.82;;
45274;SDS011;31019;43.780;25.948;2023-03-23T06:33:26;145.93;;;108.60;;
45274;SDS011;31019;43.780;25.948;2023-03-23T06:35:53;140.18;;;109.95;;
45274;SDS011;31019;43.780;25.948;2023-03-23T06:38:21;145.10;;;108.25;;
45274;SDS011;31019;43.780;25.948;2023-03-23T06:40:47;146.05;;;111.20;;
45274;SDS011;31019;43.780;25.948;2023-03-23T06:43:15;132.90;;;104.25;;
45274;SDS011;31019;43.780;25.948;2023-03-23T06:45:42;130.75;;;108.00;;
45274;SDS011;31019;43.780;25.948;2023-03-23T06:48:11;122.25;;;104.00;;
45274;SDS011;31019;43.780;25.948;2023-03-23T06:50:38;129.98;;;107.32;;
45274;SDS011;31019;43.780;25.948;2023-03-23T06:53:08;128.43;;;100.38;;
45274;SDS011;31019;43.780;25.948;2023-03-23T06:55:35;132.48;;;107.30;;
45274;SDS011;31019;43.780;25.948;2023-03-23T06:58:02;136.30;;;113.50;;
45274;SDS011;31019;43.780;25.948;2023-03-23T07:00:29;126.43;;;107.10;;
45274;SDS011;31019;43.780;25.948;2023-03-23T07:02:56;120.28;;;98.75;;
45274;SDS011;31019;43.780;25.948;2023-03-23T07:05:24;115.28;;;91.53;;
45274;SDS011;31019;43.780;25.948;2023-03-23T07:07:51;111.35;;;87.72;;
45274;SDS011;31019;43.780;25.948;2023-03-23T07:10:18;117.78;;;95.45;;
45274;SDS011;31019;43.780;25.948;2023-03-23T07:12:45;121.15;;;94.93;;
45274;SDS011;31019;43.780;25.948;2023-03-23T07:15:12;124.75;;;96.45;;
45274;SDS011;31019;43.780;25.948;2023-03-23T07:17:40;116.40;;;96.20;;
45274;SDS011;31019;43.780;25.948;2023-03-23T07:20:07;117.10;;;100.20;;
45274;SDS011;31019;43.780;25.948;2023-03-23T07:22:36;126.55;;;97.50;;
45274;SDS011;31019;43.780;25.948;2023-03-23T07:25:03;134.23;;;100.85;;
45274;SDS011;31019;43.780;25.948;2023-03-23T07:27:31;109.95;;;96.20;;
45274;SDS011;31019;43.780;25.948;2023-03-23T07:29:57;125.38;;;100.88;;
45274;SDS011;31019;43.780;25.948;2023-03-23T07:32:24;105.85;;;86.32;;
45274;SDS011;31019;43.780;25.948;2023-03-23T07:34:51;127.05;;;103.22;;
45274;SDS011;31019;43.780;25.948;2023-03-23T07:37:18;125.50;;;107.13;;
45274;SDS011;31019;43.780;25.948;2023-03-23T07:39:46;115.10;;;103.13;;
45274;SDS011;31019;43.780;25.948;2023-03-23T07:42:13;115.03;;;102.55;;
45274;SDS011;31019;43.780;25.948;2023-03-23T07:44:39;107.72;;;96.03;;
45274;SDS011;31019;43.780;25.948;2023-03-23T07:47:06;99.03;;;88.40;;
45274;SDS011;31019;43.780;25.948;2023-03-23T07:49:33;104.28;;;91.57;;
45274;SDS011;31019;43.780;25.948;2023-03-23T07:52:00;97.20;;;86.55;;
45274;SDS011;31019;43.780;25.948;2023-03-23T07:54:28;102.43;;;90.30;;
45274;SDS011;31019;43.780;25.948;2023-03-23T07:56:56;96.65;;;86.15;;
45274;SDS011;31019;43.780;25.948;2023-03-23T07:59:22;104.80;;;89.57;;
45274;SDS011;31019;43.780;25.948;2023-03-23T08:01:49;106.57;;;92.35;;
45274;SDS011;31019;43.780;25.948;2023-03-23T08:04:16;111.88;;;98.45;;
45274;SDS011;31019;43.780;25.948;2023-03-23T08:06:43;112.28;;;94.25;;
45274;SDS011;31019;43.780;25.948;2023-03-23T08:09:10;115.85;;;103.35;;
45274;SDS011;31019;43.780;25.948;2023-03-23T08:11:38;106.50;;;91.57;;
45274;SDS011;31019;43.780;25.948;2023-03-23T08:14:06;97.80;;;86.55;;
45274;SDS011;31019;43.780;25.948;2023-03-23T08:16:33;99.15;;;85.95;;
45274;SDS011;31019;43.780;25.948;2023-03-23T08:19:00;98.63;;;87.85;;
45274;SDS011;31019;43.780;25.948;2023-03-23T08:21:27;102.32;;;91.38;;
45274;SDS011;31019;43.780;25.948;2023-03-23T08:23:54;97.00;;;87.00;;
45274;SDS011;31019;43.780;25.948;2023-03-23T08:26:21;93.45;;;83.30;;
45274;SDS011;31019;43.780;25.948;2023-03-23T08:28:48;100.22;;;89.32;;
45274;SDS011;31019;43.780;25.948;2023-03-23T08:31:16;99.90;;;89.47;;
45274;SDS011;31019;43.780;25.948;2023-03-23T08:33:43;94.13;;;83.05;;
45274;SDS011;31019;43.780;25.948;2023-03-23T08:36:10;103.82;;;89.57;;
45274;SDS011;31019;43.780;25.948;2023-03-23T08:38:37;99.68;;;89.15;;
45274;SDS011;31019;43.780;25.948;2023-03-23T08:41:04;95.40;;;85.53;;
45274;SDS011;31019;43.780;25.948;2023-03-23T08:45:59;107.88;;;97.25;;
45274;SDS011;31019;43.780;25.948;2023-03-23T08:48:28;101.32;;;90.93;;
45274;SDS011;31019;43.780;25.948;2023-03-23T08:50:54;101.53;;;91.05;;
45274;SDS011;31019;43.780;25.948;2023-03-23T08:53:21;94.38;;;84.25;;
45274;SDS011;31019;43.780;25.948;2023-03-23T08:55:48;106.50;;;95.40;;
45274;SDS011;31019;43.780;25.948;2023-03-23T08:58:15;97.28;;;87.35;;
45274;SDS011;31019;43.780;25.948;2023-03-23T09:00:43;92.30;;;82.50;;
45274;SDS011;31019;43.780;25.948;2023-03-23T09:03:10;94.18;;;84.03;;
45274;SDS011;31019;43.780;25.948;2023-03-23T09:05:39;95.20;;;85.10;;
45274;SDS011;31019;43.780;25.948;2023-03-23T09:08:11;96.65;;;86.75;;
45274;SDS011;31019;43.780;25.948;2023-03-23T09:10:38;92.25;;;82.50;;
45274;SDS011;31019;43.780;25.948;2023-03-23T09:13:05;91.05;;;81.35;;
45274;SDS011;31019;43.780;25.948;2023-03-23T09:15:32;86.40;;;77.65;;
45274;SDS011;31019;43.780;25.948;2023-03-23T09:17:59;80.85;;;72.55;;
45274;SDS011;31019;43.780;25.948;2023-03-23T09:20:26;81.45;;;69.55;;
45274;SDS011;31019;43.780;25.948;2023-03-23T09:22:56;79.82;;;71.13;;
45274;SDS011;31019;43.780;25.948;2023-03-23T09:25:24;83.35;;;74.50;;
45274;SDS011;31019;43.780;25.948;2023-03-23T09:27:52;86.20;;;77.45;;
45274;SDS011;31019;43.780;25.948;2023-03-23T09:30:21;75.75;;;67.65;;
45274;SDS011;31019;43.780;25.948;2023-03-23T09:32:51;76.80;;;68.65;;
45274;SDS011;31019;43.780;25.948;2023-03-23T09:35:18;77.18;;;67.18;;
45274;SDS011;31019;43.780;25.948;2023-03-23T09:37:46;81.70;;;72.75;;
45274;SDS011;31019;43.780;25.948;2023-03-23T09:40:17;65.22;;;56.97;;
45274;SDS011;31019;43.780;25.948;2023-03-23T09:45:36;69.03;;;59.17;;
45274;SDS011;31019;43.780;25.948;2023-03-23T09:51:04;73.80;;;61.05;;
45274;SDS011;31019;43.780;25.948;2023-03-23T09:53:44;92.18;;;83.47;;
45274;SDS011;31019;43.780;25.948;2023-03-23T09:56:16;61.07;;;52.90;;
45274;SDS011;31019;43.780;25.948;2023-03-23T09:58:45;55.47;;;49.47;;
45274;SDS011;31019;43.780;25.948;2023-03-23T10:01:19;57.60;;;51.70;;
45274;SDS011;31019;43.780;25.948;2023-03-23T10:03:50;59.08;;;52.67;;
45274;SDS011;31019;43.780;25.948;2023-03-23T10:06:26;59.45;;;53.08;;
45274;SDS011;31019;43.780;25.948;2023-03-23T10:08:54;59.72;;;53.30;;
45274;SDS011;31019;43.780;25.948;2023-03-23T10:11:26;51.22;;;46.30;;
45274;SDS011;31019;43.780;25.948;2023-03-23T10:14:04;49.35;;;44.40;;
45274;SDS011;31019;43.780;25.948;2023-03-23T10:16:42;52.55;;;47.28;;
45274;SDS011;31019;43.780;25.948;2023-03-23T10:19:20;51.75;;;46.95;;
45274;SDS011;31019;43.780;25.948;2023-03-23T10:21:55;46.75;;;42.00;;
45274;SDS011;31019;43.780;25.948;2023-03-23T10:24:26;43.85;;;39.50;;
45274;SDS011;31019;43.780;25.948;2023-03-23T10:27:03;40.90;;;36.88;;
45274;SDS011;31019;43.780;25.948;2023-03-23T10:29:39;43.50;;;39.20;;
45274;SDS011;31019;43.780;25.948;2023-03-23T10:32:11;44.03;;;39.88;;
45274;SDS011;31019;43.780;25.948;2023-03-23T10:34:41;41.40;;;37.47;;
45274;SDS011;31019;43.780;25.948;2023-03-23T10:37:12;43.90;;;39.65;;
45274;SDS011;31019;43.780;25.948;2023-03-23T10:39:44;46.17;;;41.13;;
45274;SDS011;31019;43.780;25.948;2023-03-23T10:42:22;41.92;;;37.65;;
45274;SDS011;31019;43.780;25.948;2023-03-23T10:44:53;49.33;;;43.95;;
45274;SDS011;31019;43.780;25.948;2023-03-23T10:47:20;48.90;;;43.70;;
45274;SDS011;31019;43.780;25.948;2023-03-23T10:49:48;45.20;;;40.35;;
45274;SDS011;31019;43.780;25.948;2023-03-23T10:52:23;46.22;;;41.45;;
45274;SDS011;31019;43.780;25.948;2023-03-23T10:54:55;42.25;;;38.10;;
45274;SDS011;31019;43.780;25.948;2023-03-23T10:57:30;40.38;;;36.47;;
45274;SDS011;31019;43.780;25.948;2023-03-23T11:00:00;42.55;;;38.60;;
45274;SDS011;31019;43.780;25.948;2023-03-23T11:02:31;51.55;;;46.88;;
45274;SDS011;31019;43.780;25.948;2023-03-23T11:05:03;48.15;;;43.38;;
45274;SDS011;31019;43.780;25.948;2023-03-23T11:07:32;41.72;;;37.70;;
45274;SDS011;31019;43.780;25.948;2023-03-23T11:10:15;41.92;;;38.03;;
45274;SDS011;31019;43.780;25.948;2023-03-23T11:12:45;44.88;;;40.40;;
45274;SDS011;31019;43.780;25.948;2023-03-23T11:15:26;43.80;;;40.10;;
45274;SDS011;31019;43.780;25.948;2023-03-23T11:17:59;42.00;;;38.17;;
45274;SDS011;31019;43.780;25.948;2023-03-23T11:20:27;43.00;;;39.17;;
45274;SDS011;31019;43.780;25.948;2023-03-23T11:22:55;43.35;;;39.65;;
45274;SDS011;31019;43.780;25.948;2023-03-23T11:25:23;45.80;;;41.85;;
45274;SDS011;31019;43.780;25.948;2023-03-23T11:27:52;44.33;;;40.42;;
45274;SDS011;31019;43.780;25.948;2023-03-23T11:30:22;41.90;;;38.08;;
45274;SDS011;31019;43.780;25.948;2023-03-23T11:32:52;41.40;;;37.88;;
45274;SDS011;31019;43.780;25.948;2023-03-23T11:35:21;46.67;;;42.58;;
45274;SDS011;31019;43.780;25.948;2023-03-23T11:37:50;41.38;;;37.72;;
45274;SDS011;31019;43.780;25.948;2023-03-23T11:40:20;36.05;;;32.70;;
45274;SDS011;31019;43.780;25.948;2023-03-23T11:42:48;41.05;;;37.33;;
45274;SDS011;31019;43.780;25.948;2023-03-23T11:45:24;42.55;;;38.83;;
45274;SDS011;31019;43.780;25.948;2023-03-23T11:47:59;32.90;;;29.80;;
45274;SDS011;31019;43.780;25.948;2023-03-23T11:50:35;34.33;;;30.90;;
45274;SDS011;31019;43.780;25.948;2023-03-23T11:53:08;38.95;;;35.55;;
45274;SDS011;31019;43.780;25.948;2023-03-23T11:55:50;41.20;;;37.20;;
45274;SDS011;31019;43.780;25.948;2023-03-23T11:58:22;37.97;;;34.73;;
45274;SDS011;31019;43.780;25.948;2023-03-23T12:00:54;34.83;;;31.85;;
45274;SDS011;31019;43.780;25.948;2023-03-23T12:03:25;40.88;;;37.33;;
45274;SDS011;31019;43.780;25.948;2023-03-23T12:06:15;38.95;;;35.33;;
45274;SDS011;31019;43.780;25.948;2023-03-23T12:08:52;40.47;;;36.88;;
45274;SDS011;31019;43.780;25.948;2023-03-23T12:11:32;41.08;;;37.00;;
45274;SDS011;31019;43.780;25.948;2023-03-23T12:16:43;38.03;;;34.42;;
45274;SDS011;31019;43.780;25.948;2023-03-23T12:19:18;31.83;;;28.88;;
45274;SDS011;31019;43.780;25.948;2023-03-23T12:21:55;34.55;;;31.25;;
45274;SDS011;31019;43.780;25.948;2023-03-23T12:24:38;34.53;;;31.15;;
45274;SDS011;31019;43.780;25.948;2023-03-23T12:27:18;33.92;;;30.52;;
45274;SDS011;31019;43.780;25.948;2023-03-23T12:29:54;36.83;;;33.03;;
45274;SDS011;31019;43.780;25.948;2023-03-23T12:35:34;43.45;;;39.20;;
45274;SDS011;31019;43.780;25.948;2023-03-23T12:38:29;41.53;;;37.17;;
45274;SDS011;31019;43.780;25.948;2023-03-23T12:41:11;38.47;;;34.72;;
45274;SDS011;31019;43.780;25.948;2023-03-23T12:43:48;36.55;;;32.95;;
45274;SDS011;31019;43.780;25.948;2023-03-23T12:46:26;34.10;;;30.75;;
45274;SDS011;31019;43.780;25.948;2023-03-23T12:49:04;33.08;;;29.67;;
45274;SDS011;31019;43.780;25.948;2023-03-23T12:51:35;36.40;;;32.70;;
45274;SDS011;31019;43.780;25.948;2023-03-23T12:54:08;40.45;;;35.90;;
45274;SDS011;31019;43.780;25.948;2023-03-23T12:56:44;40.40;;;36.40;;
45274;SDS011;31019;43.780;25.948;2023-03-23T12:59:16;38.45;;;34.90;;
45274;SDS011;31019;43.780;25.948;2023-03-23T13:01:49;35.10;;;31.60;;
45274;SDS011;31019;43.780;25.948;2023-03-23T13:04:21;35.85;;;32.40;;
45274;SDS011;31019;43.780;25.948;2023-03-23T13:06:51;34.92;;;31.35;;
45274;SDS011;31019;43.780;25.948;2023-03-23T13:09:19;33.85;;;30.63;;
45274;SDS011;31019;43.780;25.948;2023-03-23T13:11:51;35.75;;;32.25;;
45274;SDS011;31019;43.780;25.948;2023-03-23T13:14:31;34.65;;;31.25;;
45274;SDS011;31019;43.780;25.948;2023-03-23T13:17:07;34.05;;;30.83;;
45274;SDS011;31019;43.780;25.948;2023-03-23T13:23:10;34.22;;;30.92;;
45274;SDS011;31019;43.780;25.948;2023-03-23T13:25:45;34.38;;;30.95;;
45274;SDS011;31019;43.780;25.948;2023-03-23T13:28:15;32.65;;;29.23;;
45274;SDS011;31019;43.780;25.948;2023-03-23T13:30:55;30.77;;;27.58;;
45274;SDS011;31019;43.780;25.948;2023-03-23T13:33:23;30.90;;;27.75;;
45274;SDS011;31019;43.780;25.948;2023-03-23T13:35:50;33.92;;;30.73;;
45274;SDS011;31019;43.780;25.948;2023-03-23T13:38:20;29.48;;;26.58;;
45274;SDS011;31019;43.780;25.948;2023-03-23T13:40:50;31.67;;;28.42;;
45274;SDS011;31019;43.780;25.948;2023-03-23T13:43:25;31.63;;;28.17;;
45274;SDS011;31019;43.780;25.948;2023-03-23T13:45:53;31.58;;;28.33;;
45274;SDS011;31019;43.780;25.948;2023-03-23T13:48:22;37.55;;;30.98;;
45274;SDS011;31019;43.780;25.948;2023-03-23T13:50:53;32.83;;;29.58;;
45274;SDS011;31019;43.780;25.948;2023-03-23T13:53:24;32.42;;;29.05;;
45274;SDS011;31019;43.780;25.948;2023-03-23T13:56:12;34.30;;;30.30;;
45274;SDS011;31019;43.780;25.948;2023-03-23T13:58:44;35.28;;;31.45;;
45274;SDS011;31019;43.780;25.948;2023-03-23T14:01:14;35.13;;;31.60;;
45274;SDS011;31019;43.780;25.948;2023-03-23T14:03:43;34.22;;;30.63;;
45274;SDS011;31019;43.780;25.948;2023-03-23T14:06:15;34.40;;;31.00;;
45274;SDS011;31019;43.780;25.948;2023-03-23T14:08:47;32.40;;;29.05;;
45274;SDS011;31019;43.780;25.948;2023-03-23T14:11:17;30.30;;;27.13;;
45274;SDS011;31019;43.780;25.948;2023-03-23T14:13:51;33.13;;;29.45;;
45274;SDS011;31019;43.780;25.948;2023-03-23T14:16:31;35.08;;;31.60;;
45274;SDS011;31019;43.780;25.948;2023-03-23T14:19:02;35.22;;;31.70;;
45274;SDS011;31019;43.780;25.948;2023-03-23T14:21:40;34.97;;;30.38;;
45274;SDS011;31019;43.780;25.948;2023-03-23T14:24:10;33.60;;;30.10;;
45274;SDS011;31019;43.780;25.948;2023-03-23T14:26:39;33.42;;;29.95;;
45274;SDS011;31019;43.780;25.948;2023-03-23T14:29:09;33.53;;;30.20;;
45274;SDS011;31019;43.780;25.948;2023-03-23T14:31:37;33.50;;;30.15;;
45274;SDS011;31019;43.780;25.948;2023-03-23T14:34:10;31.77;;;28.35;;
45274;SDS011;31019;43.780;25.948;2023-03-23T14:36:39;35.63;;;30.42;;
45274;SDS011;31019;43.780;25.948;2023-03-23T14:39:11;33.45;;;29.88;;